sensor_id;sensor_type;location;lat;lon;timestamp;temperature;humidity
19000;DHT22;9633;50.980;13.850;2023-07-09T00:00:35;15.60;99.90
19000;DHT22;9633;50.980;13.850;2023-07-09T00:02:09;15.60;99.90
19000;DHT22;9633;50.980;13.850;2023-07-09T00:03:43;15.50;99.90
19000;DHT22;9633;50.980;13.850;2023-07-09T00:05:17;15.50;99.90
19000;DHT22;9633;50.980;13.850;2023-07-09T00:06:50;15.40;99.90
19000;DHT22;9633;50.980;13.850;2023-07-09T00:08:26;15.40;99.90
19000;DHT22;9633;50.980;13.850;2023-07-09T00:10:00;15.30;99.90
19000;DHT22;9633;50.980;13.850;2023-07-09T00:11:32;15.30;99.90
19000;DHT22;9633;50.980;13.850;2023-07-09T00:13:07;15.20;99.90
19000;DHT22;9633;50.980;13.850;2023-07-09T00:14:39;15.20;99.90
19000;DHT22;9633;50.980;13.850;2023-07-09T00:16:19;15.20;99.90
19000;DHT22;9633;50.980;13.850;2023-07-09T00:17:53;15.20;99.90
19000;DHT22;9633;50.980;13.850;2023-07-09T00:19:26;15.10;99.90
19000;DHT22;9633;50.980;13.850;2023-07-09T00:21:01;15.10;99.90
19000;DHT22;9633;50.980;13.850;2023-07-09T00:22:34;15.20;99.90
19000;DHT22;9633;50.980;13.850;2023-07-09T00:24:07;15.10;99.90
19000;DHT22;9633;50.980;13.850;2023-07-09T00:25:42;15.10;99.90
19000;DHT22;9633;50.980;13.850;2023-07-09T00:27:18;15.00;99.90
19000;DHT22;9633;50.980;13.850;2023-07-09T00:28:53;15.00;99.90
19000;DHT22;9633;50.980;13.850;2023-07-09T00:30:25;15.10;99.90
19000;DHT22;9633;50.980;13.850;2023-07-09T00:31:58;15.10;99.90
19000;DHT22;9633;50.980;13.850;2023-07-09T00:33:30;15.10;99.90
19000;DHT22;9633;50.980;13.850;2023-07-09T00:35:04;15.10;99.90
19000;DHT22;9633;50.980;13.850;2023-07-09T00:36:37;15.10;99.90
19000;DHT22;9633;50.980;13.850;2023-07-09T00:38:14;15.00;99.90
19000;DHT22;9633;50.980;13.850;2023-07-09T00:39:48;15.00;99.90
19000;DHT22;9633;50.980;13.850;2023-07-09T00:41:22;14.90;99.90
19000;DHT22;9633;50.980;13.850;2023-07-09T00:42:59;14.90;99.90
19000;DHT22;9633;50.980;13.850;2023-07-09T00:44:33;14.80;99.90
19000;DHT22;9633;50.980;13.850;2023-07-09T00:46:16;14.80;99.90
19000;DHT22;9633;50.980;13.850;2023-07-09T00:47:52;14.80;99.90
19000;DHT22;9633;50.980;13.850;2023-07-09T00:49:28;14.80;99.90
19000;DHT22;9633;50.980;13.850;2023-07-09T00:51:01;14.70;99.90
19000;DHT22;9633;50.980;13.850;2023-07-09T00:52:46;14.70;99.90
19000;DHT22;9633;50.980;13.850;2023-07-09T00:54:25;14.60;99.90
19000;DHT22;9633;50.980;13.850;2023-07-09T00:56:08;14.50;99.90
19000;DHT22;9633;50.980;13.850;2023-07-09T00:57:43;14.60;99.90
19000;DHT22;9633;50.980;13.850;2023-07-09T00:59:18;14.60;99.90
19000;DHT22;9633;50.980;13.850;2023-07-09T01:00:58;14.70;99.90
19000;DHT22;9633;50.980;13.850;2023-07-09T01:02:33;14.70;99.90
19000;DHT22;9633;50.980;13.850;2023-07-09T01:04:09;14.50;99.90
19000;DHT22;9633;50.980;13.850;2023-07-09T01:05:43;14.50;99.90
19000;DHT22;9633;50.980;13.850;2023-07-09T01:07:17;14.50;99.90
19000;DHT22;9633;50.980;13.850;2023-07-09T01:08:52;14.60;99.90
19000;DHT22;9633;50.980;13.850;2023-07-09T01:10:26;14.60;99.90
19000;DHT22;9633;50.980;13.850;2023-07-09T01:11:58;14.60;99.90
19000;DHT22;9633;50.980;13.850;2023-07-09T01:13:35;14.50;99.90
19000;DHT22;9633;50.980;13.850;2023-07-09T01:15:08;14.30;99.90
19000;DHT22;9633;50.980;13.850;2023-07-09T01:16:48;14.30;99.90
19000;DHT22;9633;50.980;13.850;2023-07-09T01:18:21;14.20;99.90
19000;DHT22;9633;50.980;13.850;2023-07-09T01:19:56;14.20;99.90
19000;DHT22;9633;50.980;13.850;2023-07-09T01:21:30;14.20;99.90
19000;DHT22;9633;50.980;13.850;2023-07-09T01:23:04;14.20;99.90
19000;DHT22;9633;50.980;13.850;2023-07-09T01:24:50;14.30;99.90
19000;DHT22;9633;50.980;13.850;2023-07-09T01:26:26;14.40;99.90
19000;DHT22;9633;50.980;13.850;2023-07-09T01:27:59;14.60;99.90
19000;DHT22;9633;50.980;13.850;2023-07-09T01:29:33;14.70;99.90
19000;DHT22;9633;50.980;13.850;2023-07-09T01:31:09;14.90;99.90
19000;DHT22;9633;50.980;13.850;2023-07-09T01:32:43;14.90;99.90
19000;DHT22;9633;50.980;13.850;2023-07-09T01:34:18;15.00;99.90
19000;DHT22;9633;50.980;13.850;2023-07-09T01:35:52;14.90;99.90
19000;DHT22;9633;50.980;13.850;2023-07-09T01:37:36;14.90;99.90
19000;DHT22;9633;50.980;13.850;2023-07-09T01:39:08;14.80;99.90
19000;DHT22;9633;50.980;13.850;2023-07-09T01:40:43;14.70;99.90
19000;DHT22;9633;50.980;13.850;2023-07-09T01:42:21;14.60;99.90
19000;DHT22;9633;50.980;13.850;2023-07-09T01:43:54;14.60;99.90
19000;DHT22;9633;50.980;13.850;2023-07-09T01:45:28;14.60;99.90
19000;DHT22;9633;50.980;13.850;2023-07-09T01:47:05;14.60;99.90
19000;DHT22;9633;50.980;13.850;2023-07-09T01:48:38;14.70;99.90
19000;DHT22;9633;50.980;13.850;2023-07-09T01:50:14;14.70;99.90
19000;DHT22;9633;50.980;13.850;2023-07-09T01:51:48;14.70;99.90
19000;DHT22;9633;50.980;13.850;2023-07-09T01:53:25;14.70;99.90
19000;DHT22;9633;50.980;13.850;2023-07-09T01:54:59;14.60;99.90
19000;DHT22;9633;50.980;13.850;2023-07-09T01:56:33;14.50;99.90
19000;DHT22;9633;50.980;13.850;2023-07-09T01:58:10;14.40;99.90
19000;DHT22;9633;50.980;13.850;2023-07-09T01:59:43;14.40;99.90
19000;DHT22;9633;50.980;13.850;2023-07-09T02:01:16;14.30;99.90
19000;DHT22;9633;50.980;13.850;2023-07-09T02:02:51;14.30;99.90
19000;DHT22;9633;50.980;13.850;2023-07-09T02:04:26;14.20;99.90
19000;DHT22;9633;50.980;13.850;2023-07-09T02:05:59;14.10;99.90
19000;DHT22;9633;50.980;13.850;2023-07-09T02:07:35;14.00;99.90
19000;DHT22;9633;50.980;13.850;2023-07-09T02:09:08;14.00;99.90
19000;DHT22;9633;50.980;13.850;2023-07-09T02:10:43;13.90;99.90
19000;DHT22;9633;50.980;13.850;2023-07-09T02:12:18;14.00;99.90
19000;DHT22;9633;50.980;13.850;2023-07-09T02:13:50;14.10;99.90
19000;DHT22;9633;50.980;13.850;2023-07-09T02:15:24;14.10;99.90
19000;DHT22;9633;50.980;13.850;2023-07-09T02:16:58;14.10;99.90
19000;DHT22;9633;50.980;13.850;2023-07-09T02:18:30;14.20;99.90
19000;DHT22;9633;50.980;13.850;2023-07-09T02:20:06;14.20;99.90
19000;DHT22;9633;50.980;13.850;2023-07-09T02:21:38;14.20;99.90
19000;DHT22;9633;50.980;13.850;2023-07-09T02:23:12;14.20;99.90
19000;DHT22;9633;50.980;13.850;2023-07-09T02:24:47;14.10;99.90
19000;DHT22;9633;50.980;13.850;2023-07-09T02:26:19;14.10;99.90
19000;DHT22;9633;50.980;13.850;2023-07-09T02:27:53;14.00;99.90
19000;DHT22;9633;50.980;13.850;2023-07-09T02:29:26;14.00;99.90
19000;DHT22;9633;50.980;13.850;2023-07-09T02:31:00;14.10;99.90
19000;DHT22;9633;50.980;13.850;2023-07-09T02:32:32;14.20;99.90
19000;DHT22;9633;50.980;13.850;2023-07-09T02:34:05;14.20;99.90
19000;DHT22;9633;50.980;13.850;2023-07-09T02:35:37;14.10;99.90
19000;DHT22;9633;50.980;13.850;2023-07-09T02:37:11;14.10;99.90
19000;DHT22;9633;50.980;13.850;2023-07-09T02:38:43;14.10;99.90
19000;DHT22;9633;50.980;13.850;2023-07-09T02:40:17;14.10;99.90
19000;DHT22;9633;50.980;13.850;2023-07-09T02:41:51;14.10;99.90
19000;DHT22;9633;50.980;13.850;2023-07-09T02:43:23;14.10;99.90
19000;DHT22;9633;50.980;13.850;2023-07-09T02:44:56;14.10;99.90
19000;DHT22;9633;50.980;13.850;2023-07-09T02:46:31;14.10;99.90
19000;DHT22;9633;50.980;13.850;2023-07-09T02:48:05;14.00;99.90
19000;DHT22;9633;50.980;13.850;2023-07-09T02:49:43;14.00;99.90
19000;DHT22;9633;50.980;13.850;2023-07-09T02:51:17;13.90;99.90
19000;DHT22;9633;50.980;13.850;2023-07-09T02:52:50;13.90;99.90
19000;DHT22;9633;50.980;13.850;2023-07-09T02:54:23;13.90;99.90
19000;DHT22;9633;50.980;13.850;2023-07-09T02:55:58;13.80;99.90
19000;DHT22;9633;50.980;13.850;2023-07-09T02:57:31;13.70;99.90
19000;DHT22;9633;50.980;13.850;2023-07-09T02:59:04;13.60;99.90
19000;DHT22;9633;50.980;13.850;2023-07-09T03:00:38;13.60;99.90
19000;DHT22;9633;50.980;13.850;2023-07-09T03:02:11;13.60;99.90
19000;DHT22;9633;50.980;13.850;2023-07-09T03:03:44;13.50;99.90
19000;DHT22;9633;50.980;13.850;2023-07-09T03:05:17;13.50;99.90
19000;DHT22;9633;50.980;13.850;2023-07-09T03:06:49;13.50;99.90
19000;DHT22;9633;50.980;13.850;2023-07-09T03:08:22;13.50;99.90
19000;DHT22;9633;50.980;13.850;2023-07-09T03:09:55;13.60;99.90
19000;DHT22;9633;50.980;13.850;2023-07-09T03:11:30;13.60;99.90
19000;DHT22;9633;50.980;13.850;2023-07-09T03:13:03;13.70;99.90
19000;DHT22;9633;50.980;13.850;2023-07-09T03:14:36;13.70;99.90
19000;DHT22;9633;50.980;13.850;2023-07-09T03:16:08;13.80;99.90
19000;DHT22;9633;50.980;13.850;2023-07-09T03:17:41;13.80;99.90
19000;DHT22;9633;50.980;13.850;2023-07-09T03:19:14;13.80;99.90
19000;DHT22;9633;50.980;13.850;2023-07-09T03:20:47;13.80;99.90
19000;DHT22;9633;50.980;13.850;2023-07-09T03:22:19;13.90;99.90
19000;DHT22;9633;50.980;13.850;2023-07-09T03:23:52;13.80;99.90
19000;DHT22;9633;50.980;13.850;2023-07-09T03:25:25;13.80;99.90
19000;DHT22;9633;50.980;13.850;2023-07-09T03:26:59;13.90;99.90
19000;DHT22;9633;50.980;13.850;2023-07-09T03:28:32;13.90;99.90
19000;DHT22;9633;50.980;13.850;2023-07-09T03:30:06;13.90;99.90
19000;DHT22;9633;50.980;13.850;2023-07-09T03:31:39;14.00;99.90
19000;DHT22;9633;50.980;13.850;2023-07-09T03:33:13;14.10;99.90
19000;DHT22;9633;50.980;13.850;2023-07-09T03:34:46;14.20;99.90
19000;DHT22;9633;50.980;13.850;2023-07-09T03:36:20;14.30;99.90
19000;DHT22;9633;50.980;13.850;2023-07-09T03:37:53;14.40;99.90
19000;DHT22;9633;50.980;13.850;2023-07-09T03:39:25;14.50;99.90
19000;DHT22;9633;50.980;13.850;2023-07-09T03:40:59;14.50;99.90
19000;DHT22;9633;50.980;13.850;2023-07-09T03:42:32;14.50;99.90
19000;DHT22;9633;50.980;13.850;2023-07-09T03:44:05;14.60;99.90
19000;DHT22;9633;50.980;13.850;2023-07-09T03:45:39;14.60;99.90
19000;DHT22;9633;50.980;13.850;2023-07-09T03:47:11;14.70;99.90
19000;DHT22;9633;50.980;13.850;2023-07-09T03:48:44;14.80;99.90
19000;DHT22;9633;50.980;13.850;2023-07-09T03:50:17;14.80;99.90
19000;DHT22;9633;50.980;13.850;2023-07-09T03:51:50;14.90;99.90
19000;DHT22;9633;50.980;13.850;2023-07-09T03:53:23;15.00;99.90
19000;DHT22;9633;50.980;13.850;2023-07-09T03:54:56;15.10;99.90
19000;DHT22;9633;50.980;13.850;2023-07-09T03:56:29;15.10;99.90
19000;DHT22;9633;50.980;13.850;2023-07-09T03:58:03;15.20;99.90
19000;DHT22;9633;50.980;13.850;2023-07-09T03:59:36;15.40;99.90
19000;DHT22;9633;50.980;13.850;2023-07-09T04:01:11;15.40;99.90
19000;DHT22;9633;50.980;13.850;2023-07-09T04:02:45;15.60;99.90
19000;DHT22;9633;50.980;13.850;2023-07-09T04:04:17;15.60;99.90
19000;DHT22;9633;50.980;13.850;2023-07-09T04:05:52;15.70;99.90
19000;DHT22;9633;50.980;13.850;2023-07-09T04:07:25;15.80;99.90
19000;DHT22;9633;50.980;13.850;2023-07-09T04:08:58;15.80;99.90
19000;DHT22;9633;50.980;13.850;2023-07-09T04:10:31;15.90;99.90
19000;DHT22;9633;50.980;13.850;2023-07-09T04:12:04;16.00;99.90
19000;DHT22;9633;50.980;13.850;2023-07-09T04:13:39;16.10;99.90
19000;DHT22;9633;50.980;13.850;2023-07-09T04:15:12;16.20;99.90
19000;DHT22;9633;50.980;13.850;2023-07-09T04:16:45;16.20;99.90
19000;DHT22;9633;50.980;13.850;2023-07-09T04:18:18;16.30;99.90
19000;DHT22;9633;50.980;13.850;2023-07-09T04:19:51;16.40;99.90
19000;DHT22;9633;50.980;13.850;2023-07-09T04:21:24;16.60;99.90
19000;DHT22;9633;50.980;13.850;2023-07-09T04:22:57;16.60;99.90
19000;DHT22;9633;50.980;13.850;2023-07-09T04:24:31;16.70;99.90
19000;DHT22;9633;50.980;13.850;2023-07-09T04:26:05;16.80;99.90
19000;DHT22;9633;50.980;13.850;2023-07-09T04:27:41;16.80;99.90
19000;DHT22;9633;50.980;13.850;2023-07-09T04:29:14;16.90;99.90
19000;DHT22;9633;50.980;13.850;2023-07-09T04:30:48;16.90;99.90
19000;DHT22;9633;50.980;13.850;2023-07-09T04:32:22;17.00;99.90
19000;DHT22;9633;50.980;13.850;2023-07-09T04:33:55;17.00;99.90
19000;DHT22;9633;50.980;13.850;2023-07-09T04:35:28;17.20;99.90
19000;DHT22;9633;50.980;13.850;2023-07-09T04:37:00;17.20;99.90
19000;DHT22;9633;50.980;13.850;2023-07-09T04:38:33;17.20;99.90
19000;DHT22;9633;50.980;13.850;2023-07-09T04:40:08;17.30;99.90
19000;DHT22;9633;50.980;13.850;2023-07-09T04:41:42;17.40;99.90
19000;DHT22;9633;50.980;13.850;2023-07-09T04:43:15;17.40;99.90
19000;DHT22;9633;50.980;13.850;2023-07-09T04:44:50;17.50;99.90
19000;DHT22;9633;50.980;13.850;2023-07-09T04:46:22;17.60;99.90
19000;DHT22;9633;50.980;13.850;2023-07-09T04:47:55;17.60;99.90
19000;DHT22;9633;50.980;13.850;2023-07-09T04:49:28;17.70;99.90
19000;DHT22;9633;50.980;13.850;2023-07-09T04:51:01;17.80;99.90
19000;DHT22;9633;50.980;13.850;2023-07-09T04:52:34;17.90;99.90
19000;DHT22;9633;50.980;13.850;2023-07-09T04:54:06;18.00;99.90
19000;DHT22;9633;50.980;13.850;2023-07-09T04:55:39;18.00;99.90
19000;DHT22;9633;50.980;13.850;2023-07-09T04:57:12;18.10;99.90
19000;DHT22;9633;50.980;13.850;2023-07-09T04:58:45;18.10;99.90
19000;DHT22;9633;50.980;13.850;2023-07-09T05:00:22;18.10;99.90
19000;DHT22;9633;50.980;13.850;2023-07-09T05:01:56;18.20;99.90
19000;DHT22;9633;50.980;13.850;2023-07-09T05:03:28;18.30;99.90
19000;DHT22;9633;50.980;13.850;2023-07-09T05:05:01;18.30;99.90
19000;DHT22;9633;50.980;13.850;2023-07-09T05:06:33;18.30;99.90
19000;DHT22;9633;50.980;13.850;2023-07-09T05:08:07;18.40;99.90
19000;DHT22;9633;50.980;13.850;2023-07-09T05:09:40;18.50;99.90
19000;DHT22;9633;50.980;13.850;2023-07-09T05:11:12;18.60;99.90
19000;DHT22;9633;50.980;13.850;2023-07-09T05:12:49;18.70;99.90
19000;DHT22;9633;50.980;13.850;2023-07-09T05:14:22;18.80;99.90
19000;DHT22;9633;50.980;13.850;2023-07-09T05:15:56;18.90;99.90
19000;DHT22;9633;50.980;13.850;2023-07-09T05:17:29;18.90;99.90
19000;DHT22;9633;50.980;13.850;2023-07-09T05:19:03;19.10;99.70
19000;DHT22;9633;50.980;13.850;2023-07-09T05:20:35;19.20;99.90
19000;DHT22;9633;50.980;13.850;2023-07-09T05:22:08;19.30;90.70
19000;DHT22;9633;50.980;13.850;2023-07-09T05:23:41;19.50;91.20
19000;DHT22;9633;50.980;13.850;2023-07-09T05:25:14;19.50;96.00
19000;DHT22;9633;50.980;13.850;2023-07-09T05:26:46;19.60;94.50
19000;DHT22;9633;50.980;13.850;2023-07-09T05:28:19;19.60;97.60
19000;DHT22;9633;50.980;13.850;2023-07-09T05:29:51;19.70;96.70
19000;DHT22;9633;50.980;13.850;2023-07-09T05:31:26;19.80;93.00
19000;DHT22;9633;50.980;13.850;2023-07-09T05:32:58;19.80;84.60
19000;DHT22;9633;50.980;13.850;2023-07-09T05:34:31;19.80;84.70
19000;DHT22;9633;50.980;13.850;2023-07-09T05:36:05;19.90;85.00
19000;DHT22;9633;50.980;13.850;2023-07-09T05:37:39;20.00;61.80
19000;DHT22;9633;50.980;13.850;2023-07-09T05:39:12;20.10;70.50
19000;DHT22;9633;50.980;13.850;2023-07-09T05:40:45;20.20;91.40
19000;DHT22;9633;50.980;13.850;2023-07-09T05:42:18;20.40;58.10
19000;DHT22;9633;50.980;13.850;2023-07-09T05:43:52;20.60;44.80
19000;DHT22;9633;50.980;13.850;2023-07-09T05:45:25;20.70;42.50
19000;DHT22;9633;50.980;13.850;2023-07-09T05:46:59;20.80;26.30
19000;DHT22;9633;50.980;13.850;2023-07-09T05:48:32;21.00;39.00
19000;DHT22;9633;50.980;13.850;2023-07-09T05:50:06;21.20;23.40
19000;DHT22;9633;50.980;13.850;2023-07-09T05:51:39;21.40;22.60
19000;DHT22;9633;50.980;13.850;2023-07-09T05:53:11;21.50;16.20
19000;DHT22;9633;50.980;13.850;2023-07-09T05:54:45;21.70;20.10
19000;DHT22;9633;50.980;13.850;2023-07-09T18:10:21;30.50;25.50
19000;DHT22;9633;50.980;13.850;2023-07-09T18:11:54;30.60;40.00
19000;DHT22;9633;50.980;13.850;2023-07-09T18:13:29;30.70;31.20
19000;DHT22;9633;50.980;13.850;2023-07-09T18:15:03;30.60;33.80
19000;DHT22;9633;50.980;13.850;2023-07-09T18:16:36;30.30;34.10
19000;DHT22;9633;50.980;13.850;2023-07-09T18:18:10;30.20;36.40
19000;DHT22;9633;50.980;13.850;2023-07-09T18:19:44;29.90;34.80
19000;DHT22;9633;50.980;13.850;2023-07-09T18:21:17;29.70;33.90
19000;DHT22;9633;50.980;13.850;2023-07-09T18:22:49;29.40;31.20
19000;DHT22;9633;50.980;13.850;2023-07-09T18:24:22;29.20;37.10
19000;DHT22;9633;50.980;13.850;2023-07-09T18:25:57;29.00;34.90
19000;DHT22;9633;50.980;13.850;2023-07-09T18:27:34;29.00;35.20
19000;DHT22;9633;50.980;13.850;2023-07-09T18:29:12;28.70;37.70
19000;DHT22;9633;50.980;13.850;2023-07-09T18:30:54;28.30;38.80
19000;DHT22;9633;50.980;13.850;2023-07-09T18:32:47;28.00;37.00
19000;DHT22;9633;50.980;13.850;2023-07-09T18:34:24;27.70;38.20
19000;DHT22;9633;50.980;13.850;2023-07-09T18:35:58;27.40;38.30
19000;DHT22;9633;50.980;13.850;2023-07-09T18:37:30;27.20;39.20
19000;DHT22;9633;50.980;13.850;2023-07-09T18:39:03;27.00;38.80
19000;DHT22;9633;50.980;13.850;2023-07-09T18:40:43;26.90;39.30
19000;DHT22;9633;50.980;13.850;2023-07-09T18:42:20;26.70;38.90
19000;DHT22;9633;50.980;13.850;2023-07-09T18:43:52;26.50;44.10
19000;DHT22;9633;50.980;13.850;2023-07-09T18:45:27;26.30;44.00
19000;DHT22;9633;50.980;13.850;2023-07-09T18:46:59;26.20;43.70
19000;DHT22;9633;50.980;13.850;2023-07-09T18:48:33;26.10;42.80
19000;DHT22;9633;50.980;13.850;2023-07-09T18:50:05;26.00;44.60
19000;DHT22;9633;50.980;13.850;2023-07-09T18:51:41;25.90;45.80
19000;DHT22;9633;50.980;13.850;2023-07-09T18:53:16;25.80;45.90
19000;DHT22;9633;50.980;13.850;2023-07-09T18:54:52;25.70;41.50
19000;DHT22;9633;50.980;13.850;2023-07-09T18:56:25;25.50;43.60
19000;DHT22;9633;50.980;13.850;2023-07-09T18:58:00;25.30;47.70
19000;DHT22;9633;50.980;13.850;2023-07-09T18:59:33;25.10;52.10
19000;DHT22;9633;50.980;13.850;2023-07-09T19:01:17;25.00;53.00
19000;DHT22;9633;50.980;13.850;2023-07-09T19:02:52;24.90;51.40
19000;DHT22;9633;50.980;13.850;2023-07-09T19:04:27;24.90;46.20
19000;DHT22;9633;50.980;13.850;2023-07-09T19:06:03;24.80;49.20
19000;DHT22;9633;50.980;13.850;2023-07-09T19:07:36;24.70;48.50
19000;DHT22;9633;50.980;13.850;2023-07-09T19:09:15;24.60;55.40
19000;DHT22;9633;50.980;13.850;2023-07-09T19:10:49;24.50;43.50
19000;DHT22;9633;50.980;13.850;2023-07-09T19:12:22;24.50;46.00
19000;DHT22;9633;50.980;13.850;2023-07-09T19:13:56;24.40;43.40
19000;DHT22;9633;50.980;13.850;2023-07-09T19:15:33;24.40;40.50
19000;DHT22;9633;50.980;13.850;2023-07-09T19:17:11;24.30;45.20
19000;DHT22;9633;50.980;13.850;2023-07-09T19:18:44;24.20;39.00
19000;DHT22;9633;50.980;13.850;2023-07-09T19:20:19;24.10;37.80
19000;DHT22;9633;50.980;13.850;2023-07-09T19:21:54;23.90;40.20
19000;DHT22;9633;50.980;13.850;2023-07-09T19:23:27;23.70;35.50
19000;DHT22;9633;50.980;13.850;2023-07-09T19:25:00;23.60;36.20
19000;DHT22;9633;50.980;13.850;2023-07-09T19:26:32;23.50;33.10
19000;DHT22;9633;50.980;13.850;2023-07-09T19:28:06;23.40;28.30
19000;DHT22;9633;50.980;13.850;2023-07-09T19:29:40;23.40;21.40
19000;DHT22;9633;50.980;13.850;2023-07-09T19:31:16;23.40;21.90
19000;DHT22;9633;50.980;13.850;2023-07-09T19:32:50;23.30;17.10
19000;DHT22;9633;50.980;13.850;2023-07-09T19:34:26;23.20;18.60
19000;DHT22;9633;50.980;13.850;2023-07-09T19:36:01;23.10;30.30
19000;DHT22;9633;50.980;13.850;2023-07-09T19:37:33;23.00;43.50
19000;DHT22;9633;50.980;13.850;2023-07-09T19:39:19;22.90;24.90
19000;DHT22;9633;50.980;13.850;2023-07-09T19:40:55;22.90;25.10
19000;DHT22;9633;50.980;13.850;2023-07-09T19:42:27;22.80;35.40
19000;DHT22;9633;50.980;13.850;2023-07-09T19:44:00;22.70;51.80
19000;DHT22;9633;50.980;13.850;2023-07-09T19:45:37;22.60;43.60
19000;DHT22;9633;50.980;13.850;2023-07-09T19:47:17;22.50;41.70
19000;DHT22;9633;50.980;13.850;2023-07-09T19:48:50;22.40;30.90
19000;DHT22;9633;50.980;13.850;2023-07-09T19:50:28;22.40;21.30
19000;DHT22;9633;50.980;13.850;2023-07-09T19:52:01;22.40;42.90
19000;DHT22;9633;50.980;13.850;2023-07-09T19:53:35;22.30;42.40
19000;DHT22;9633;50.980;13.850;2023-07-09T19:55:16;22.20;32.40
19000;DHT22;9633;50.980;13.850;2023-07-09T19:56:49;22.20;37.20
19000;DHT22;9633;50.980;13.850;2023-07-09T19:58:24;22.20;23.00
19000;DHT22;9633;50.980;13.850;2023-07-09T19:59:57;22.20;20.80
19000;DHT22;9633;50.980;13.850;2023-07-09T20:01:32;22.30;17.30
19000;DHT22;9633;50.980;13.850;2023-07-09T20:03:09;22.50;7.80
19000;DHT22;9633;50.980;13.850;2023-07-09T20:04:49;22.60;10.80
19000;DHT22;9633;50.980;13.850;2023-07-09T20:06:22;22.60;10.40
19000;DHT22;9633;50.980;13.850;2023-07-09T20:07:57;22.50;13.70
19000;DHT22;9633;50.980;13.850;2023-07-09T20:09:31;22.40;16.70
19000;DHT22;9633;50.980;13.850;2023-07-09T20:11:04;22.30;41.40
19000;DHT22;9633;50.980;13.850;2023-07-09T20:12:38;22.10;50.00
19000;DHT22;9633;50.980;13.850;2023-07-09T20:14:13;21.90;58.00
19000;DHT22;9633;50.980;13.850;2023-07-09T20:15:47;21.90;43.30
19000;DHT22;9633;50.980;13.850;2023-07-09T20:17:21;21.80;77.10
19000;DHT22;9633;50.980;13.850;2023-07-09T20:18:55;21.60;80.90
19000;DHT22;9633;50.980;13.850;2023-07-09T20:20:28;21.60;74.30
19000;DHT22;9633;50.980;13.850;2023-07-09T20:22:00;21.50;96.50
19000;DHT22;9633;50.980;13.850;2023-07-09T20:23:33;21.50;99.90
19000;DHT22;9633;50.980;13.850;2023-07-09T20:25:16;21.50;99.90
19000;DHT22;9633;50.980;13.850;2023-07-09T20:26:49;21.50;99.50
19000;DHT22;9633;50.980;13.850;2023-07-09T20:28:24;21.50;97.90
19000;DHT22;9633;50.980;13.850;2023-07-09T20:29:58;21.50;99.90
19000;DHT22;9633;50.980;13.850;2023-07-09T20:31:32;21.50;99.90
19000;DHT22;9633;50.980;13.850;2023-07-09T20:33:08;21.50;99.90
19000;DHT22;9633;50.980;13.850;2023-07-09T20:34:43;21.50;99.90
19000;DHT22;9633;50.980;13.850;2023-07-09T20:36:15;21.50;99.90
19000;DHT22;9633;50.980;13.850;2023-07-09T20:37:49;21.50;99.90
19000;DHT22;9633;50.980;13.850;2023-07-09T20:39:22;21.40;99.90
19000;DHT22;9633;50.980;13.850;2023-07-09T20:40:56;21.30;99.90
19000;DHT22;9633;50.980;13.850;2023-07-09T20:42:31;21.30;91.40
19000;DHT22;9633;50.980;13.850;2023-07-09T20:44:09;21.40;93.80
19000;DHT22;9633;50.980;13.850;2023-07-09T20:45:43;21.50;98.70
19000;DHT22;9633;50.980;13.850;2023-07-09T20:47:18;21.50;99.90
19000;DHT22;9633;50.980;13.850;2023-07-09T20:48:52;21.40;99.90
19000;DHT22;9633;50.980;13.850;2023-07-09T20:50:25;21.30;99.90
19000;DHT22;9633;50.980;13.850;2023-07-09T20:51:59;21.40;99.90
19000;DHT22;9633;50.980;13.850;2023-07-09T20:53:33;21.40;62.30
19000;DHT22;9633;50.980;13.850;2023-07-09T20:55:09;21.60;77.40
19000;DHT22;9633;50.980;13.850;2023-07-09T20:56:42;21.50;97.20
19000;DHT22;9633;50.980;13.850;2023-07-09T20:58:17;21.50;95.20
19000;DHT22;9633;50.980;13.850;2023-07-09T20:59:49;21.40;98.80
19000;DHT22;9633;50.980;13.850;2023-07-09T21:01:23;21.40;99.90
19000;DHT22;9633;50.980;13.850;2023-07-09T21:02:55;21.30;99.90
19000;DHT22;9633;50.980;13.850;2023-07-09T21:04:30;21.20;99.90
19000;DHT22;9633;50.980;13.850;2023-07-09T21:06:12;21.10;99.90
19000;DHT22;9633;50.980;13.850;2023-07-09T21:07:47;20.90;99.90
19000;DHT22;9633;50.980;13.850;2023-07-09T21:09:28;20.80;99.90
19000;DHT22;9633;50.980;13.850;2023-07-09T21:11:02;20.80;99.90
19000;DHT22;9633;50.980;13.850;2023-07-09T21:12:34;20.70;99.90
19000;DHT22;9633;50.980;13.850;2023-07-09T21:14:10;20.70;99.90
19000;DHT22;9633;50.980;13.850;2023-07-09T21:15:43;20.60;99.90
19000;DHT22;9633;50.980;13.850;2023-07-09T21:17:19;20.60;99.90
19000;DHT22;9633;50.980;13.850;2023-07-09T21:18:54;20.50;99.90
19000;DHT22;9633;50.980;13.850;2023-07-09T21:20:28;20.50;99.90
19000;DHT22;9633;50.980;13.850;2023-07-09T21:22:03;20.40;99.90
19000;DHT22;9633;50.980;13.850;2023-07-09T21:23:41;20.40;99.90
19000;DHT22;9633;50.980;13.850;2023-07-09T21:25:17;20.40;99.90
19000;DHT22;9633;50.980;13.850;2023-07-09T21:26:51;20.60;99.90
19000;DHT22;9633;50.980;13.850;2023-07-09T21:28:23;20.60;99.90
19000;DHT22;9633;50.980;13.850;2023-07-09T21:29:56;20.60;99.90
19000;DHT22;9633;50.980;13.850;2023-07-09T21:31:28;20.70;99.90
19000;DHT22;9633;50.980;13.850;2023-07-09T21:33:02;20.80;99.90
19000;DHT22;9633;50.980;13.850;2023-07-09T21:34:35;20.90;99.90
19000;DHT22;9633;50.980;13.850;2023-07-09T21:36:09;21.00;99.90
19000;DHT22;9633;50.980;13.850;2023-07-09T21:37:42;20.80;99.90
19000;DHT22;9633;50.980;13.850;2023-07-09T21:39:15;20.70;99.90
19000;DHT22;9633;50.980;13.850;2023-07-09T21:40:49;20.60;99.90
19000;DHT22;9633;50.980;13.850;2023-07-09T21:42:22;20.50;99.90
19000;DHT22;9633;50.980;13.850;2023-07-09T21:43:55;20.40;99.90
19000;DHT22;9633;50.980;13.850;2023-07-09T21:45:32;20.40;99.90
19000;DHT22;9633;50.980;13.850;2023-07-09T21:47:10;20.40;99.90
19000;DHT22;9633;50.980;13.850;2023-07-09T21:48:43;20.20;99.90
19000;DHT22;9633;50.980;13.850;2023-07-09T21:50:19;20.10;99.90
19000;DHT22;9633;50.980;13.850;2023-07-09T21:51:53;20.10;99.90
19000;DHT22;9633;50.980;13.850;2023-07-09T21:53:27;20.00;99.90
19000;DHT22;9633;50.980;13.850;2023-07-09T21:55:24;20.00;99.90
19000;DHT22;9633;50.980;13.850;2023-07-09T21:56:58;20.10;99.90
19000;DHT22;9633;50.980;13.850;2023-07-09T21:58:30;20.10;99.90
19000;DHT22;9633;50.980;13.850;2023-07-09T22:00:04;20.10;99.90
19000;DHT22;9633;50.980;13.850;2023-07-09T22:01:44;20.10;99.90
19000;DHT22;9633;50.980;13.850;2023-07-09T22:03:17;20.00;99.90
19000;DHT22;9633;50.980;13.850;2023-07-09T22:04:51;20.10;99.90
19000;DHT22;9633;50.980;13.850;2023-07-09T22:06:26;20.10;99.90
19000;DHT22;9633;50.980;13.850;2023-07-09T22:08:00;20.10;99.90
19000;DHT22;9633;50.980;13.850;2023-07-09T22:09:33;20.30;99.90